Time;durP1;ratioP1;P1;durP2;ratioP2;P2;SDS_P1;SDS_P2;PMS_P1;PMS_P2;Temp;Humidity;BMP_temperature;BMP_pressure;BME280_temperature;BME280_humidity;BME280_pressure;Samples;Min_cycle;Max_cycle;Signal;HPM_P1;HPM_P2
2023/07/11 00:01:02;;;;;;;6.43;4.20;;;19.90;99.90;;;;;;5071867;28;20421;-73
2023/07/11 00:03:49;;;;;;;8.00;4.80;;;19.80;99.90;;;;;;5077232;28;20466;-73
2023/07/11 00:06:34;;;;;;;6.40;4.40;;;19.60;99.90;;;;;;5068186;28;20562;-72
2023/07/11 00:09:21;;;;;;;7.50;5.10;;;19.50;99.90;;;;;;5074227;28;20450;-73
2023/07/11 00:12:07;;;;;;;6.90;3.97;;;19.50;99.90;;;;;;5065388;28;20814;-73
2023/07/11 00:14:53;;;;;;;6.07;4.60;;;19.70;99.90;;;;;;5074611;28;20594;-72
2023/07/11 00:17:39;;;;;;;5.90;4.63;;;19.80;99.90;;;;;;5062730;28;20952;-73
2023/07/11 00:20:26;;;;;;;8.17;5.37;;;19.60;99.90;;;;;;5068184;28;20450;-73
2023/07/11 00:23:11;;;;;;;5.83;4.73;;;19.60;99.90;;;;;;5066778;28;20809;-73
2023/07/11 00:25:57;;;;;;;5.90;4.37;;;19.30;99.90;;;;;;5073783;28;20498;-71
2023/07/11 00:28:42;;;;;;;6.47;5.40;;;19.40;99.90;;;;;;5069750;28;20435;-72
2023/07/11 00:31:28;;;;;;;18.10;5.90;;;19.50;99.90;;;;;;5070435;28;20525;-72
2023/07/11 00:34:14;;;;;;;6.30;4.90;;;19.50;99.90;;;;;;5070980;28;20484;-73
2023/07/11 00:37:01;;;;;;;6.20;4.67;;;19.30;99.90;;;;;;5073775;28;20469;-73
2023/07/11 00:39:46;;;;;;;9.60;5.83;;;19.20;99.90;;;;;;5068283;28;21052;-73
2023/07/11 00:42:32;;;;;;;5.77;4.60;;;19.10;99.90;;;;;;5059839;28;20608;-73
2023/07/11 00:45:54;;;;;;;8.67;4.50;;;19.00;99.90;;;;;;5072123;28;20497;-73
2023/07/11 00:48:45;;;;;;;6.00;4.70;;;19.00;99.90;;;;;;5071873;28;20439;-73
2023/07/11 00:51:34;;;;;;;7.03;4.70;;;19.30;99.90;;;;;;5060573;28;20932;-73
2023/07/11 00:54:26;;;;;;;5.83;4.30;;;19.50;99.90;;;;;;5070306;28;20533;-73
2023/07/11 00:57:12;;;;;;;8.27;5.20;;;19.30;99.90;;;;;;5064797;28;21041;-73
2023/07/11 00:59:57;;;;;;;8.80;5.60;;;19.10;99.90;;;;;;5069066;28;20920;-73
2023/07/11 01:02:43;;;;;;;5.83;4.80;;;19.00;99.90;;;;;;5062722;28;20842;-73
2023/07/11 01:05:28;;;;;;;7.37;4.80;;;19.00;99.90;;;;;;5068296;28;20439;-74
2023/07/11 01:08:14;;;;;;;5.40;4.60;;;19.00;99.90;;;;;;5070051;28;20446;-73
2023/07/11 01:11:01;;;;;;;5.30;4.23;;;18.90;99.90;;;;;;5065348;28;20452;-73
2023/07/11 01:13:46;;;;;;;6.73;4.00;;;18.80;99.90;;;;;;5073100;28;20574;-74
2023/07/11 01:16:32;;;;;;;7.77;4.77;;;18.80;99.90;;;;;;5074564;28;20493;-73
2023/07/11 01:19:18;;;;;;;7.10;4.77;;;18.90;99.90;;;;;;5077647;28;20846;-73
2023/07/11 01:22:04;;;;;;;7.73;5.50;;;18.90;99.90;;;;;;5063861;28;20523;-73
2023/07/11 01:24:51;;;;;;;6.73;4.50;;;18.80;99.90;;;;;;5071250;28;20462;-73
2023/07/11 01:27:36;;;;;;;7.70;4.97;;;18.70;99.90;;;;;;5070697;28;20593;-73
2023/07/11 01:30:24;;;;;;;6.07;4.40;;;18.60;99.90;;;;;;5065054;28;20444;-73
2023/07/11 01:33:10;;;;;;;7.17;4.87;;;18.50;99.90;;;;;;5069000;28;20609;-73
2023/07/11 01:35:56;;;;;;;5.77;4.50;;;18.50;99.90;;;;;;5074276;28;20683;-74
2023/07/11 01:38:42;;;;;;;6.03;4.80;;;18.60;99.90;;;;;;5067311;28;20448;-74
2023/07/11 01:41:28;;;;;;;6.50;4.50;;;18.60;99.90;;;;;;5072776;28;20474;-73
2023/07/11 01:44:14;;;;;;;7.73;5.03;;;18.60;99.90;;;;;;5059710;28;20494;-73
2023/07/11 01:47:01;;;;;;;7.40;5.40;;;18.40;99.90;;;;;;5059528;28;20439;-73
2023/07/11 01:49:46;;;;;;;7.80;4.97;;;18.40;99.90;;;;;;5056992;28;20470;-73
2023/07/11 01:52:32;;;;;;;5.83;4.60;;;18.50;99.90;;;;;;5065070;28;20540;-73
2023/07/11 01:55:19;;;;;;;6.37;4.60;;;18.40;99.90;;;;;;5069544;28;20443;-74
2023/07/11 01:58:04;;;;;;;7.43;4.50;;;18.30;99.90;;;;;;5059933;28;20603;-73
2023/07/11 02:00:50;;;;;;;7.37;4.70;;;18.30;99.90;;;;;;5068739;28;20464;-73
2023/07/11 02:03:35;;;;;;;5.80;4.60;;;18.10;99.90;;;;;;5067830;28;20471;-73
2023/07/11 02:06:21;;;;;;;6.23;4.13;;;18.20;99.90;;;;;;5065327;28;20464;-73
2023/07/11 02:09:07;;;;;;;6.17;4.70;;;18.20;99.90;;;;;;5060415;28;21257;-73
2023/07/11 02:11:53;;;;;;;6.90;4.43;;;18.50;99.90;;;;;;5061483;28;20812;-73
2023/07/11 02:14:40;;;;;;;11.57;4.40;;;18.60;99.90;;;;;;5060762;28;20585;-73
2023/07/11 02:17:26;;;;;;;6.77;5.07;;;18.70;99.90;;;;;;5069681;28;20447;-73
2023/07/11 02:20:12;;;;;;;13.43;5.53;;;18.50;99.90;;;;;;5062010;28;21076;-73
2023/07/11 02:22:59;;;;;;;10.23;4.97;;;18.40;99.90;;;;;;5068477;28;20621;-73
2023/07/11 02:25:44;;;;;;;5.27;4.77;;;18.30;99.90;;;;;;5076098;28;20528;-73
2023/07/11 02:28:31;;;;;;;6.50;4.67;;;18.30;99.90;;;;;;5067141;28;20474;-73
2023/07/11 02:31:17;;;;;;;6.50;4.70;;;18.30;99.90;;;;;;5057823;28;20882;-73
2023/07/11 02:34:03;;;;;;;9.17;5.07;;;18.40;99.90;;;;;;5076529;28;20561;-73
2023/07/11 02:36:49;;;;;;;5.40;4.57;;;18.30;99.90;;;;;;5066714;28;20516;-73
2023/07/11 02:39:34;;;;;;;23.83;5.50;;;18.10;99.90;;;;;;5063869;28;20451;-73
2023/07/11 02:42:20;;;;;;;16.97;4.70;;;18.00;99.90;;;;;;5065058;28;20540;-73
2023/07/11 02:45:08;;;;;;;8.97;4.67;;;18.00;99.90;;;;;;5072104;28;22781;-73
2023/07/11 02:47:54;;;;;;;9.37;5.20;;;18.00;99.90;;;;;;5056960;28;20451;-73
2023/07/11 02:50:39;;;;;;;6.53;4.70;;;18.10;99.90;;;;;;5057707;28;20430;-73
2023/07/11 02:53:25;;;;;;;6.87;5.30;;;18.10;99.90;;;;;;5062746;28;20458;-73
2023/07/11 02:56:10;;;;;;;28.87;6.23;;;18.10;99.90;;;;;;5072037;28;20955;-74
2023/07/11 02:58:59;;;;;;;14.83;5.27;;;18.00;99.90;;;;;;5064257;28;20967;-73
2023/07/11 03:01:46;;;;;;;11.80;5.50;;;17.80;99.90;;;;;;5064149;28;20850;-73
2023/07/11 03:04:32;;;;;;;9.03;4.67;;;17.60;99.90;;;;;;5077287;28;20729;-73
2023/07/11 03:07:18;;;;;;;7.83;5.60;;;17.60;99.90;;;;;;5071585;28;20443;-73
2023/07/11 03:10:04;;;;;;;14.77;5.57;;;17.80;99.90;;;;;;5059582;28;21020;-73
2023/07/11 03:12:49;;;;;;;6.93;4.70;;;17.90;99.90;;;;;;5068832;28;20488;-73
2023/07/11 03:15:35;;;;;;;7.67;4.90;;;17.90;99.90;;;;;;5061852;28;20860;-73
2023/07/11 03:18:21;;;;;;;6.80;4.67;;;17.80;99.90;;;;;;5065162;28;20446;-73
2023/07/11 03:21:07;;;;;;;8.63;5.53;;;17.70;99.90;;;;;;5071214;28;20461;-73
2023/07/11 03:23:52;;;;;;;8.10;5.67;;;17.40;99.90;;;;;;5071885;28;20462;-73
2023/07/11 03:26:38;;;;;;;7.97;5.00;;;17.50;99.90;;;;;;5070426;28;20574;-73
2023/07/11 03:29:23;;;;;;;10.70;5.30;;;17.60;99.90;;;;;;5074553;28;20423;-73
2023/07/11 03:32:10;;;;;;;8.00;4.93;;;17.70;99.90;;;;;;5063159;28;20835;-73
2023/07/11 03:34:57;;;;;;;6.83;5.20;;;17.70;99.90;;;;;;5076503;28;20499;-73
2023/07/11 03:37:42;;;;;;;5.87;4.53;;;17.90;99.90;;;;;;5074493;28;20532;-73
2023/07/11 03:40:29;;;;;;;5.97;4.73;;;17.90;99.90;;;;;;5065912;28;20960;-73
2023/07/11 03:43:14;;;;;;;6.53;4.87;;;17.90;99.90;;;;;;5063086;28;20444;-73
2023/07/11 03:46:00;;;;;;;7.40;4.83;;;17.70;99.90;;;;;;5071119;28;20425;-73
2023/07/11 03:48:45;;;;;;;11.80;5.70;;;17.70;99.90;;;;;;5068427;28;20899;-73
2023/07/11 03:51:32;;;;;;;6.10;5.07;;;17.70;99.90;;;;;;5067279;28;20539;-74
2023/07/11 03:54:18;;;;;;;7.30;5.07;;;17.80;99.90;;;;;;5070063;28;20454;-73
2023/07/11 03:57:03;;;;;;;6.90;4.97;;;17.90;99.90;;;;;;5064965;28;20422;-73
2023/07/11 03:59:48;;;;;;;5.03;4.37;;;17.80;99.90;;;;;;5073112;28;20776;-73
2023/07/11 04:02:34;;;;;;;8.90;5.63;;;17.90;99.90;;;;;;5064651;28;20475;-73
2023/07/11 04:05:20;;;;;;;7.83;4.60;;;17.80;99.90;;;;;;5074986;28;20972;-73
2023/07/11 04:08:08;;;;;;;7.90;5.10;;;17.80;99.90;;;;;;5067548;28;20966;-73
2023/07/11 04:10:53;;;;;;;8.37;4.90;;;17.90;99.90;;;;;;5064403;28;20444;-73
2023/07/11 04:13:39;;;;;;;5.90;4.37;;;17.90;99.90;;;;;;5073588;28;20469;-73
2023/07/11 04:16:24;;;;;;;6.50;4.43;;;17.90;99.90;;;;;;5066316;28;20405;-73
2023/07/11 04:19:10;;;;;;;9.07;5.30;;;18.00;99.90;;;;;;5075499;28;20447;-73
2023/07/11 04:21:56;;;;;;;5.90;4.50;;;18.10;99.90;;;;;;5073994;28;20548;-73
2023/07/11 04:24:43;;;;;;;6.00;4.30;;;18.10;99.90;;;;;;5063551;28;20445;-73
2023/07/11 04:27:28;;;;;;;6.50;4.67;;;18.10;99.90;;;;;;5060194;28;20462;-73
2023/07/11 04:30:14;;;;;;;10.13;4.70;;;18.10;99.90;;;;;;5067442;28;20553;-73
2023/07/11 04:33:00;;;;;;;5.77;4.73;;;18.10;99.90;;;;;;5063762;28;20471;-73
2023/07/11 04:35:46;;;;;;;10.13;4.23;;;18.10;99.90;;;;;;5064711;28;20440;-73
2023/07/11 04:38:31;;;;;;;11.63;4.90;;;18.10;99.90;;;;;;5067112;28;20809;-73
2023/07/11 04:41:18;;;;;;;7.47;5.03;;;18.20;99.90;;;;;;5075200;28;20525;-72
2023/07/11 04:44:03;;;;;;;7.27;4.80;;;18.30;99.90;;;;;;5069072;28;20947;-74
2023/07/11 04:46:49;;;;;;;8.20;5.40;;;18.40;99.90;;;;;;5064853;28;20518;-73
2023/07/11 04:49:35;;;;;;;7.93;5.03;;;18.50;99.90;;;;;;5067960;28;20513;-73
2023/07/11 04:52:20;;;;;;;6.10;4.60;;;18.70;99.90;;;;;;5067079;28;20479;-73
2023/07/11 04:55:07;;;;;;;7.77;5.30;;;18.80;99.90;;;;;;5076611;28;20422;-73
2023/07/11 04:57:54;;;;;;;8.97;5.27;;;18.90;99.90;;;;;;5062443;28;20996;-73
2023/07/11 05:00:39;;;;;;;10.37;5.40;;;19.00;99.90;;;;;;5066953;28;20588;-73
2023/07/11 05:03:25;;;;;;;6.30;5.27;;;19.00;99.90;;;;;;5067781;28;20805;-73
2023/07/11 05:06:12;;;;;;;6.53;4.93;;;19.10;99.90;;;;;;5075593;28;20536;-73
2023/07/11 05:08:57;;;;;;;7.63;5.53;;;19.20;99.90;;;;;;5066468;28;20883;-73
2023/07/11 05:11:43;;;;;;;5.80;5.00;;;19.30;99.90;;;;;;5064873;28;20466;-73
2023/07/11 05:14:29;;;;;;;6.83;5.23;;;19.40;99.90;;;;;;5068177;28;20439;-73
2023/07/11 05:17:15;;;;;;;9.10;4.73;;;19.60;99.90;;;;;;5068750;28;20446;-73
2023/07/11 05:20:00;;;;;;;8.03;5.40;;;19.70;99.90;;;;;;5071738;28;20807;-73
2023/07/11 05:22:46;;;;;;;7.10;4.83;;;19.80;99.90;;;;;;5072787;28;20432;-73
2023/07/11 05:25:31;;;;;;;6.17;5.30;;;19.90;99.90;;;;;;5065939;28;20455;-73
2023/07/11 05:28:17;;;;;;;6.00;4.80;;;19.90;99.90;;;;;;5067023;28;20751;-73
2023/07/11 05:31:06;;;;;;;11.67;4.87;;;20.00;99.90;;;;;;5068850;28;21007;-73
2023/07/11 05:33:54;;;;;;;6.20;5.20;;;20.10;99.90;;;;;;5068593;28;20509;-73
2023/07/11 05:36:39;;;;;;;5.80;4.50;;;20.10;99.90;;;;;;5063914;28;20593;-73
2023/07/11 05:39:24;;;;;;;5.20;4.63;;;20.20;99.90;;;;;;5072252;28;20536;-73
2023/07/11 05:42:10;;;;;;;7.77;5.00;;;20.20;99.90;;;;;;5060848;28;20462;-73
2023/07/11 05:44:56;;;;;;;5.80;4.70;;;20.30;99.90;;;;;;5067738;28;20494;-72
2023/07/11 05:47:43;;;;;;;8.30;5.40;;;20.30;99.90;;;;;;5070178;28;20454;-73
2023/07/11 05:50:28;;;;;;;7.50;5.10;;;20.30;99.90;;;;;;5063584;28;20450;-73
2023/07/11 05:53:14;;;;;;;5.90;4.77;;;20.40;99.90;;;;;;5068494;28;21557;-73
2023/07/11 05:55:59;;;;;;;15.17;5.57;;;20.50;99.90;;;;;;5061443;28;20956;-73
2023/07/11 05:58:47;;;;;;;6.77;5.40;;;20.60;99.90;;;;;;5068203;28;20828;-73
2023/07/11 06:01:32;;;;;;;7.83;4.53;;;20.70;99.90;;;;;;5061381;28;20974;-73
2023/07/11 06:04:19;;;;;;;7.90;5.20;;;20.80;99.90;;;;;;5075985;28;20607;-73
2023/07/11 06:07:05;;;;;;;9.43;5.93;;;20.90;99.90;;;;;;5058303;28;20550;-73
2023/07/11 06:09:50;;;;;;;10.00;5.53;;;20.90;99.90;;;;;;5066172;28;20434;-73
2023/07/11 06:12:36;;;;;;;5.90;4.70;;;21.00;99.90;;;;;;5065545;28;20521;-72
2023/07/11 06:15:21;;;;;;;8.00;4.67;;;21.10;99.90;;;;;;5069104;28;20443;-73
2023/07/11 06:18:08;;;;;;;7.10;5.20;;;21.20;99.90;;;;;;5065289;28;20463;-73
2023/07/11 06:20:54;;;;;;;8.87;5.40;;;21.30;99.90;;;;;;5058726;28;20874;-73
2023/07/11 06:23:40;;;;;;;9.50;5.63;;;21.40;99.90;;;;;;5065817;28;20811;-73
2023/07/11 06:26:26;;;;;;;8.33;4.50;;;21.50;99.90;;;;;;5067067;28;20439;-73
2023/07/11 06:29:11;;;;;;;6.37;4.80;;;21.70;99.90;;;;;;5062271;28;20439;-73
2023/07/11 06:31:57;;;;;;;7.40;5.30;;;21.70;99.90;;;;;;5058092;28;20491;-73
2023/07/11 06:34:42;;;;;;;6.90;4.93;;;21.80;99.90;;;;;;5056067;28;20577;-73
2023/07/11 06:37:28;;;;;;;7.53;5.00;;;22.00;99.90;;;;;;5067263;28;20470;-73
2023/07/11 06:40:15;;;;;;;13.40;5.03;;;22.10;99.90;;;;;;5069795;28;20438;-72
2023/07/11 06:43:00;;;;;;;7.60;5.20;;;22.20;99.90;;;;;;5066209;28;20790;-73
2023/07/11 06:45:46;;;;;;;7.27;5.37;;;22.30;99.90;;;;;;5075382;28;20470;-73
2023/07/11 06:48:32;;;;;;;7.17;5.30;;;22.40;99.90;;;;;;5063146;28;20936;-73
2023/07/11 06:51:18;;;;;;;7.60;5.07;;;22.60;99.90;;;;;;5070373;28;20984;-73
2023/07/11 06:54:05;;;;;;;5.90;4.60;;;22.70;99.90;;;;;;5068853;28;20441;-73
2023/07/11 06:56:50;;;;;;;9.67;4.93;;;22.80;99.90;;;;;;5064458;28;20802;-73
2023/07/11 06:59:35;;;;;;;13.50;5.93;;;22.90;99.90;;;;;;5073827;28;20573;-73
2023/07/11 07:02:21;;;;;;;9.50;5.53;;;23.10;99.90;;;;;;5053865;28;20462;-73
2023/07/11 07:05:07;;;;;;;9.40;5.93;;;23.10;99.90;;;;;;5071732;28;20497;-73
2023/07/11 07:07:52;;;;;;;11.43;5.37;;;23.30;99.90;;;;;;5064047;28;20498;-73
2023/07/11 07:10:39;;;;;;;7.23;4.90;;;23.40;99.90;;;;;;5068938;28;20442;-73
2023/07/11 07:13:26;;;;;;;6.47;4.83;;;23.60;99.90;;;;;;5068535;28;20456;-73
2023/07/11 07:16:11;;;;;;;9.60;5.90;;;23.60;99.90;;;;;;5072309;28;20460;-73
2023/07/11 07:18:56;;;;;;;8.97;4.70;;;23.80;99.90;;;;;;5068808;28;20435;-73
2023/07/11 07:21:42;;;;;;;6.30;5.10;;;23.90;99.90;;;;;;5063973;28;20470;-73
2023/07/11 07:24:28;;;;;;;11.63;5.47;;;24.10;99.90;;;;;;5056949;28;20964;-73
2023/07/11 07:27:14;;;;;;;6.37;5.20;;;24.20;99.90;;;;;;5058174;28;20874;-73
2023/07/11 07:30:00;;;;;;;7.13;4.70;;;24.30;99.90;;;;;;5071882;28;20442;-73
2023/07/11 07:32:45;;;;;;;7.53;6.00;;;24.40;99.90;;;;;;5064829;28;20466;-73
2023/07/11 07:35:31;;;;;;;7.60;4.63;;;24.50;99.90;;;;;;5085812;28;20459;-73
2023/07/11 07:38:17;;;;;;;12.93;5.20;;;24.70;95.50;;;;;;5073819;28;20454;-73
2023/07/11 07:41:04;;;;;;;6.27;5.20;;;24.80;93.60;;;;;;5072957;28;21094;-73
2023/07/11 07:43:51;;;;;;;6.47;5.03;;;25.00;91.20;;;;;;5081834;28;20528;-73
2023/07/11 07:46:37;;;;;;;8.80;5.10;;;25.10;83.90;;;;;;5074214;28;20607;-73
2023/07/11 07:49:22;;;;;;;8.43;5.47;;;25.20;82.10;;;;;;5081347;28;20448;-73
2023/07/11 07:52:08;;;;;;;6.73;5.60;;;25.30;82.10;;;;;;5077858;28;20875;-73
2023/07/11 07:54:53;;;;;;;8.20;4.87;;;25.50;80.10;;;;;;5076109;28;20457;-73
2023/07/11 07:57:39;;;;;;;8.33;6.00;;;25.70;83.80;;;;;;5069295;28;20459;-73
2023/07/11 08:00:26;;;;;;;7.53;5.30;;;25.70;71.70;;;;;;5077179;28;20453;-73
2023/07/11 08:03:11;;;;;;;8.53;4.87;;;25.80;71.00;;;;;;5070067;28;20466;-73
2023/07/11 08:05:58;;;;;;;7.37;5.97;;;26.00;67.80;;;;;;5070675;28;20450;-73
2023/07/11 08:08:44;;;;;;;9.50;5.77;;;26.10;57.40;;;;;;5064840;28;20450;-73
2023/07/11 08:11:29;;;;;;;10.70;5.43;;;26.20;52.10;;;;;;5059414;28;20649;-73
2023/07/11 08:14:15;;;;;;;7.20;4.40;;;26.30;51.40;;;;;;5072759;28;20446;-73
2023/07/11 08:17:01;;;;;;;8.23;4.93;;;26.50;43.60;;;;;;5067995;28;20599;-73
2023/07/11 08:19:47;;;;;;;14.70;5.60;;;26.60;43.50;;;;;;5066530;28;20451;-73
2023/07/11 08:22:32;;;;;;;8.17;4.90;;;26.70;39.90;;;;;;5060113;28;20464;-73
2023/07/11 08:25:18;;;;;;;8.37;5.60;;;26.80;42.10;;;;;;5068772;28;21007;-72
2023/07/11 08:28:05;;;;;;;6.17;4.53;;;26.80;42.30;;;;;;5064701;28;20447;-72
2023/07/11 08:30:50;;;;;;;7.20;5.33;;;26.90;38.90;;;;;;5062684;28;20455;-72
2023/07/11 08:33:37;;;;;;;6.90;5.37;;;27.00;46.50;;;;;;5073047;28;20521;-72
2023/07/11 08:36:23;;;;;;;17.73;5.43;;;27.10;48.90;;;;;;5067485;28;20450;-72
2023/07/11 08:39:08;;;;;;;7.63;6.00;;;27.10;46.60;;;;;;5061770;28;20468;-72
2023/07/11 08:41:55;;;;;;;11.93;5.83;;;27.20;46.70;;;;;;5069443;28;20480;-72
2023/07/11 08:44:50;;;;;;;7.07;5.40;;;27.30;46.80;;;;;;5067673;28;20441;-72
2023/07/11 08:47:40;;;;;;;10.20;6.50;;;27.30;50.40;;;;;;5060645;28;20845;-72
2023/07/11 08:50:30;;;;;;;12.10;6.00;;;27.40;42.50;;;;;;5070193;28;20551;-72
2023/07/11 08:53:19;;;;;;;7.70;5.90;;;27.50;43.20;;;;;;5066651;28;20442;-72
2023/07/11 08:56:16;;;;;;;7.93;6.47;;;27.50;45.00;;;;;;5067007;28;20462;-72
2023/07/11 08:59:02;;;;;;;8.97;5.37;;;27.50;39.70;;;;;;5074287;28;20504;-72
2023/07/11 09:01:55;;;;;;;10.33;5.40;;;27.60;42.10;;;;;;5067661;28;20458;-72
2023/07/11 09:04:45;;;;;;;10.93;5.80;;;27.70;42.20;;;;;;5070683;28;20511;-72
2023/07/11 09:07:37;;;;;;;8.40;5.67;;;27.70;39.60;;;;;;5071079;28;20439;-72
2023/07/11 09:10:33;;;;;;;7.47;6.00;;;27.80;39.90;;;;;;5066574;28;20998;-72
2023/07/11 09:13:32;;;;;;;8.90;5.20;;;27.90;37.30;;;;;;5074249;28;20566;-72
2023/07/11 09:16:25;;;;;;;10.93;5.50;;;28.00;39.60;;;;;;5066414;28;20612;-72
2023/07/11 09:19:31;;;;;;;8.10;6.37;;;28.10;33.10;;;;;;5063355;28;20451;-72
2023/07/11 09:22:24;;;;;;;9.27;5.57;;;28.20;36.70;;;;;;5066669;28;20470;-72
2023/07/11 09:25:13;;;;;;;9.17;6.70;;;28.30;37.90;;;;;;5062847;28;20470;-72
2023/07/11 09:28:06;;;;;;;15.03;5.90;;;28.40;34.10;;;;;;5063848;28;20439;-72
2023/07/11 09:30:55;;;;;;;11.93;6.37;;;28.40;33.30;;;;;;5071878;28;20444;-72
2023/07/11 09:33:45;;;;;;;11.37;6.30;;;28.50;35.10;;;;;;5066135;28;20458;-72
2023/07/11 09:36:34;;;;;;;6.10;5.20;;;28.50;36.80;;;;;;5065807;28;20438;-72
2023/07/11 09:39:25;;;;;;;9.17;6.07;;;28.60;33.50;;;;;;5070770;28;20442;-72
2023/07/11 09:42:21;;;;;;;8.47;5.40;;;28.60;32.30;;;;;;5077970;28;20517;-72
2023/07/11 09:45:11;;;;;;;10.70;6.23;;;28.60;30.20;;;;;;5071471;28;20804;-72
2023/07/11 09:48:04;;;;;;;8.77;6.27;;;28.70;33.50;;;;;;5063762;28;20455;-72
2023/07/11 09:51:00;;;;;;;9.30;5.77;;;28.80;31.80;;;;;;5055072;28;20480;-72
2023/07/11 09:53:47;;;;;;;7.57;6.30;;;29.00;31.40;;;;;;5085501;28;20947;-72
2023/07/11 09:56:44;;;;;;;10.10;6.17;;;29.00;33.80;;;;;;5065332;28;20431;-72
2023/07/11 09:59:32;;;;;;;12.17;6.67;;;29.00;29.90;;;;;;5069223;28;20438;-73
2023/07/11 10:02:18;;;;;;;9.70;7.20;;;29.00;33.80;;;;;;5068166;28;20462;-72
2023/07/11 10:05:03;;;;;;;8.00;6.63;;;29.10;30.40;;;;;;5068465;28;20443;-72
2023/07/11 10:07:59;;;;;;;8.53;6.57;;;29.10;29.20;;;;;;5059516;28;20455;-72
2023/07/11 10:10:46;;;;;;;8.17;6.20;;;29.20;34.00;;;;;;5065422;28;20457;-73
2023/07/11 10:13:32;;;;;;;11.80;7.30;;;29.40;34.10;;;;;;5063355;28;20585;-72
2023/07/11 10:16:19;;;;;;;9.77;6.70;;;29.40;29.80;;;;;;5062890;28;20451;-72
2023/07/11 10:19:04;;;;;;;12.10;6.63;;;29.50;31.30;;;;;;5063577;28;20455;-72
2023/07/11 10:21:51;;;;;;;17.63;7.07;;;29.60;30.00;;;;;;5055136;28;20883;-72
2023/07/11 10:24:39;;;;;;;8.30;5.70;;;29.60;29.90;;;;;;5068382;28;20572;-73
2023/07/11 10:27:30;;;;;;;8.43;6.80;;;29.70;29.20;;;;;;5059193;28;20612;-72
2023/07/11 10:30:20;;;;;;;8.73;7.00;;;29.80;29.50;;;;;;5063035;28;20444;-73
2023/07/11 10:33:18;;;;;;;12.07;6.70;;;29.80;30.20;;;;;;5059918;28;20481;-72
2023/07/11 10:36:12;;;;;;;8.70;6.50;;;29.90;31.20;;;;;;5062727;28;20441;-72
2023/07/11 10:39:01;;;;;;;8.40;6.30;;;29.90;30.00;;;;;;5059645;28;20510;-72
2023/07/11 10:41:51;;;;;;;14.00;6.43;;;29.90;32.80;;;;;;5059521;28;20462;-72
2023/07/11 10:44:43;;;;;;;11.57;6.90;;;30.00;34.60;;;;;;5075787;28;20453;-72
2023/07/11 10:47:32;;;;;;;10.67;5.90;;;30.00;32.80;;;;;;5059373;28;20668;-72
2023/07/11 10:50:32;;;;;;;11.40;6.70;;;30.00;34.60;;;;;;5069759;28;20514;-72
2023/07/11 10:53:24;;;;;;;11.30;7.00;;;30.10;33.70;;;;;;5055874;28;20444;-72
2023/07/11 10:56:17;;;;;;;11.07;7.07;;;30.30;31.60;;;;;;5069838;28;20443;-72
2023/07/11 10:59:03;;;;;;;9.03;7.20;;;30.30;31.40;;;;;;5074777;28;20438;-72
2023/07/11 11:02:00;;;;;;;12.13;6.57;;;30.30;30.00;;;;;;5063269;28;20518;-72
2023/07/11 11:05:09;;;;;;;10.13;6.27;;;30.40;32.10;;;;;;5065339;28;20431;-72
2023/07/11 11:08:01;;;;;;;7.97;6.83;;;30.50;33.80;;;;;;5063859;28;20481;-72
2023/07/11 11:10:55;;;;;;;8.87;6.83;;;30.60;31.20;;;;;;5075882;28;20446;-73
2023/07/11 11:13:49;;;;;;;11.20;7.33;;;30.70;28.10;;;;;;5071746;28;20517;-73
2023/07/11 11:16:41;;;;;;;11.70;6.50;;;30.70;28.00;;;;;;5066973;28;20508;-72
2023/07/11 11:19:44;;;;;;;12.70;6.70;;;30.70;26.80;;;;;;5063666;28;20931;-72
2023/07/11 11:22:38;;;;;;;10.43;7.47;;;30.70;27.00;;;;;;5071994;28;20466;-72
2023/07/11 11:25:30;;;;;;;13.23;7.93;;;30.80;26.00;;;;;;5064020;28;20569;-72
2023/07/11 11:28:24;;;;;;;12.27;7.07;;;30.90;26.50;;;;;;5069545;28;20916;-72
2023/07/11 11:31:25;;;;;;;12.63;7.00;;;30.90;23.40;;;;;;5075166;28;20995;-72
2023/07/11 11:34:27;;;;;;;8.53;6.50;;;31.00;23.50;;;;;;5068974;28;20458;-72
2023/07/11 11:37:28;;;;;;;14.40;6.90;;;31.10;23.40;;;;;;5072630;28;20516;-73
2023/07/11 11:40:16;;;;;;;12.93;6.90;;;31.20;22.90;;;;;;5071992;28;20541;-72
2023/07/11 11:43:06;;;;;;;9.47;5.83;;;31.30;23.00;;;;;;5065617;28;20463;-72
2023/07/11 11:45:53;;;;;;;10.73;6.07;;;31.40;20.60;;;;;;5064292;28;20528;-72
2023/07/11 11:48:40;;;;;;;10.70;6.70;;;31.50;21.00;;;;;;5072905;28;20527;-72
2023/07/11 11:51:27;;;;;;;11.43;6.77;;;31.60;18.00;;;;;;5063052;28;20484;-72
2023/07/11 11:54:19;;;;;;;11.73;7.27;;;31.60;18.60;;;;;;5061575;28;20556;-74
2023/07/11 11:57:05;;;;;;;10.60;7.10;;;31.70;19.40;;;;;;5068856;28;20592;-74
2023/07/11 11:59:52;;;;;;;10.60;7.00;;;31.60;20.70;;;;;;5070351;28;20468;-73
2023/07/11 12:02:39;;;;;;;10.97;6.87;;;31.70;20.30;;;;;;5062075;28;20465;-73
2023/07/11 12:05:25;;;;;;;12.43;6.60;;;31.80;17.90;;;;;;5060392;28;20447;-75
2023/07/11 12:08:24;;;;;;;16.03;7.20;;;31.90;18.70;;;;;;5066086;28;20438;-73
2023/07/11 12:11:19;;;;;;;10.20;6.80;;;32.00;17.60;;;;;;5058744;28;20474;-73
2023/07/11 12:14:28;;;;;;;14.07;7.50;;;32.20;18.80;;;;;;5063500;28;20953;-73
2023/07/11 12:17:49;;;;;;;9.27;6.80;;;32.10;15.60;;;;;;5066607;28;20440;-73
2023/07/11 12:20:37;;;;;;;11.60;7.27;;;32.10;17.40;;;;;;5068328;28;20451;-73
2023/07/11 12:23:32;;;;;;;13.27;7.17;;;32.10;17.10;;;;;;5061534;28;20453;-74
2023/07/11 12:26:22;;;;;;;11.70;6.90;;;32.10;17.70;;;;;;5073005;28;20549;-74
2023/07/11 12:29:39;;;;;;;11.47;6.30;;;32.20;17.90;;;;;;5064980;28;20446;-74
2023/07/11 12:32:41;;;;;;;8.23;6.60;;;32.30;16.70;;;;;;5065577;28;21108;-74
2023/07/11 12:35:36;;;;;;;12.80;7.40;;;32.30;17.50;;;;;;5071846;28;20439;-74
2023/07/11 12:38:30;;;;;;;10.80;6.60;;;32.60;16.50;;;;;;5067868;28;20442;-74
2023/07/11 12:41:24;;;;;;;12.80;6.70;;;32.60;15.50;;;;;;5054919;28;21011;-72
2023/07/11 12:44:12;;;;;;;11.47;7.03;;;32.80;16.50;;;;;;5063160;28;20450;-72
2023/07/11 12:46:58;;;;;;;15.73;7.97;;;32.90;14.80;;;;;;5057378;28;20563;-72
2023/07/11 12:49:46;;;;;;;14.23;7.30;;;32.90;15.40;;;;;;5053948;28;20458;-72
2023/07/11 12:52:31;;;;;;;9.10;6.43;;;33.00;16.00;;;;;;5055769;28;20481;-73
2023/07/11 12:55:18;;;;;;;9.23;6.20;;;33.10;16.30;;;;;;5059059;28;20442;-72
2023/07/11 12:58:03;;;;;;;8.60;6.10;;;33.10;16.50;;;;;;5058888;28;20958;-72
2023/07/11 13:00:50;;;;;;;10.80;7.40;;;33.10;15.50;;;;;;5064320;28;20954;-72
2023/07/11 13:03:39;;;;;;;11.23;6.50;;;33.00;14.60;;;;;;5056229;28;20815;-72
2023/07/11 13:06:29;;;;;;;13.40;7.40;;;33.10;15.70;;;;;;5061232;28;20610;-72
2023/07/11 13:09:14;;;;;;;9.93;7.03;;;33.10;15.50;;;;;;5055141;28;20456;-72
2023/07/11 13:12:01;;;;;;;16.90;7.30;;;33.30;15.90;;;;;;5051640;28;20480;-72
2023/07/11 13:14:48;;;;;;;11.30;6.70;;;33.30;15.70;;;;;;5052512;28;20440;-73
2023/07/11 13:17:33;;;;;;;7.60;6.80;;;33.40;15.30;;;;;;5059071;28;20494;-72
2023/07/11 13:20:21;;;;;;;15.23;6.50;;;33.40;15.00;;;;;;5063230;28;20486;-73
2023/07/11 13:23:10;;;;;;;11.23;6.77;;;33.40;15.40;;;;;;5062845;28;20464;-72
2023/07/11 13:25:56;;;;;;;17.23;7.97;;;33.50;16.30;;;;;;5071149;28;20455;-72
2023/07/11 13:28:42;;;;;;;10.87;6.90;;;33.50;15.40;;;;;;5066272;28;20929;-73
2023/07/11 13:31:31;;;;;;;8.70;6.77;;;33.70;15.30;;;;;;5058888;28;20565;-72
2023/07/11 13:34:19;;;;;;;10.10;7.37;;;33.80;16.00;;;;;;5055773;28;20575;-72
2023/07/11 13:37:08;;;;;;;10.50;6.80;;;33.90;14.30;;;;;;5058410;28;20807;-73
2023/07/11 13:39:54;;;;;;;11.10;6.90;;;34.00;16.00;;;;;;5057874;28;20453;-72
2023/07/11 13:42:39;;;;;;;14.63;6.73;;;34.10;14.70;;;;;;5054932;28;20461;-72
2023/07/11 13:45:26;;;;;;;10.80;6.70;;;34.20;15.00;;;;;;5056526;28;20446;-72
2023/07/11 13:48:15;;;;;;;8.40;7.30;;;34.20;14.50;;;;;;5057838;28;20612;-72
2023/07/11 13:51:06;;;;;;;12.83;6.33;;;34.30;14.50;;;;;;5062969;28;20471;-72
2023/07/11 13:53:54;;;;;;;19.13;7.47;;;34.30;14.50;;;;;;5065391;28;20452;-72
2023/07/11 13:56:40;;;;;;;9.97;7.03;;;34.10;15.40;;;;;;5063745;28;20450;-72
2023/07/11 13:59:25;;;;;;;8.70;6.50;;;34.00;14.30;;;;;;5064109;28;20445;-73
2023/07/11 14:02:15;;;;;;;8.37;5.60;;;34.10;14.90;;;;;;5053722;22;20706;-88
2023/07/11 14:05:00;;;;;;;9.40;6.10;;;34.10;15.50;;;;;;5026557;28;20444;-88
2023/07/11 14:07:47;;;;;;;7.83;6.40;;;34.30;14.70;;;;;;5032227;28;20512;-89
2023/07/11 14:10:32;;;;;;;9.70;6.90;;;34.30;14.20;;;;;;5024364;28;20467;-88
2023/07/11 14:13:23;;;;;;;9.97;6.40;;;34.40;12.90;;;;;;5029612;28;20460;-88
2023/07/11 14:16:14;;;;;;;16.00;6.80;;;34.40;14.30;;;;;;5026502;28;21168;-88
2023/07/11 14:19:02;;;;;;;9.07;6.77;;;34.20;12.80;;;;;;5021725;28;20566;-88
2023/07/11 14:21:47;;;;;;;11.23;6.27;;;34.20;13.60;;;;;;5035768;23;20886;-71
2023/07/11 14:24:32;;;;;;;10.30;6.50;;;34.20;13.90;;;;;;5040162;28;20455;-71
2023/07/11 14:27:18;;;;;;;8.00;6.80;;;34.10;12.70;;;;;;5044100;28;20469;-71
2023/07/11 14:30:05;;;;;;;19.67;6.53;;;34.20;14.70;;;;;;5040907;28;20446;-72